createdAt,value
2022-12-24T00:01:32.688Z,16.10
2022-12-24T00:03:59.292Z,16.10
2022-12-24T00:06:25.774Z,15.60
2022-12-24T00:08:52.564Z,15.60
2022-12-24T00:11:20.740Z,15.50
2022-12-24T00:13:47.797Z,15.10
2022-12-24T00:16:14.994Z,15.97
2022-12-24T00:18:45.749Z,15.97
2022-12-24T00:21:12.966Z,16.47
2022-12-24T00:23:40.458Z,15.97
2022-12-24T00:26:07.457Z,15.93
2022-12-24T00:28:33.973Z,16.60
2022-12-24T00:31:00.516Z,15.00
2022-12-24T00:33:27.799Z,15.93
2022-12-24T00:35:55.167Z,17.27
2022-12-24T00:38:21.767Z,17.00
2022-12-24T00:40:48.249Z,15.97
2022-12-24T00:43:15.424Z,16.37
2022-12-24T00:45:42.679Z,16.63
2022-12-24T00:48:09.238Z,17.17
2022-12-24T00:50:35.723Z,16.73
2022-12-24T00:53:02.217Z,15.97
2022-12-24T00:55:28.727Z,17.17
2022-12-24T00:57:55.178Z,16.27
2022-12-24T01:00:21.803Z,16.23
2022-12-24T01:02:48.415Z,16.73
2022-12-24T01:05:15.134Z,14.67
2022-12-24T01:07:44.322Z,15.10
2022-12-24T01:10:13.072Z,15.70
2022-12-24T01:12:40.674Z,15.20
2022-12-24T01:15:08.169Z,14.23
2022-12-24T01:17:35.077Z,14.77
2022-12-24T01:20:01.907Z,14.80
2022-12-24T01:22:28.389Z,15.30
2022-12-24T01:24:54.915Z,15.13
2022-12-24T01:27:21.476Z,14.67
2022-12-24T01:29:47.937Z,12.83
2022-12-24T01:32:14.445Z,13.10
2022-12-24T01:34:41.055Z,13.73
2022-12-24T01:37:07.486Z,13.20
2022-12-24T01:39:34.088Z,11.50
2022-12-24T01:42:19.285Z,13.00
2022-12-24T01:44:48.541Z,12.93
2022-12-24T01:47:19.854Z,12.90
2022-12-24T01:50:12.578Z,12.20
2022-12-24T01:52:39.400Z,12.10
2022-12-24T01:55:09.516Z,12.07
2022-12-24T01:57:42.447Z,12.00
2022-12-24T02:00:12.299Z,11.40
2022-12-24T02:02:45.190Z,12.00
2022-12-24T02:05:15.657Z,10.93
2022-12-24T02:07:42.345Z,11.23
2022-12-24T02:10:11.182Z,11.33
2022-12-24T02:12:38.020Z,10.37
2022-12-24T02:15:06.855Z,11.60
2022-12-24T02:17:43.387Z,10.53
2022-12-24T02:20:40.194Z,11.73
2022-12-24T02:23:34.771Z,11.27
2022-12-24T02:26:25.629Z,11.10
2022-12-24T02:29:20.233Z,11.00
2022-12-24T02:31:59.545Z,11.23
2022-12-24T02:34:32.068Z,11.50
2022-12-24T02:37:18.392Z,10.57
2022-12-24T02:39:57.116Z,10.23
2022-12-24T02:42:32.371Z,10.43
2022-12-24T02:45:11.439Z,10.83
2022-12-24T02:47:38.408Z,10.77
2022-12-24T02:50:07.908Z,10.83
2022-12-24T02:52:35.706Z,10.47
2022-12-24T02:55:27.978Z,10.43
2022-12-24T02:58:18.498Z,10.60
2022-12-24T03:01:17.419Z,9.83
2022-12-24T03:04:39.200Z,10.67
2022-12-24T03:07:23.627Z,10.53
2022-12-24T03:10:04.692Z,9.63
2022-12-24T03:12:44.395Z,9.93
2022-12-24T03:15:13.744Z,10.20
2022-12-24T03:17:42.836Z,9.77
2022-12-24T03:20:11.304Z,9.60
2022-12-24T03:22:38.164Z,10.10
2022-12-24T03:25:05.305Z,10.03
2022-12-24T03:27:32.870Z,9.60
2022-12-24T03:29:59.578Z,9.67
2022-12-24T03:32:29.959Z,9.33
2022-12-24T03:34:56.742Z,10.10
2022-12-24T03:37:23.993Z,10.87
2022-12-24T03:39:50.490Z,9.83
2022-12-24T03:42:16.989Z,9.83
2022-12-24T03:44:43.568Z,10.47
2022-12-24T03:47:10.046Z,9.93
2022-12-24T03:49:36.491Z,9.97
2022-12-24T03:52:03.243Z,10.17
2022-12-24T03:54:29.750Z,9.60
2022-12-24T03:56:56.209Z,10.93
2022-12-24T03:59:22.667Z,10.00
2022-12-24T04:01:49.428Z,9.93
2022-12-24T04:04:16.266Z,9.80
2022-12-24T04:06:42.804Z,11.23
2022-12-24T04:09:09.283Z,10.37
2022-12-24T04:11:35.780Z,10.80
2022-12-24T04:14:02.228Z,10.57
2022-12-24T04:16:28.705Z,10.40
2022-12-24T04:18:55.249Z,10.60
2022-12-24T04:21:21.736Z,11.20
2022-12-24T04:23:48.322Z,10.57
2022-12-24T04:26:15.044Z,11.07
2022-12-24T04:28:42.594Z,11.73
2022-12-24T04:31:12.287Z,11.03
2022-12-24T04:33:38.827Z,11.30
2022-12-24T04:36:07.022Z,11.20
2022-12-24T04:38:34.262Z,10.60
2022-12-24T04:41:03.234Z,10.90
2022-12-24T04:43:30.300Z,11.10
2022-12-24T04:45:57.042Z,11.90
2022-12-24T04:48:23.544Z,11.17
2022-12-24T04:50:50.013Z,10.97
2022-12-24T04:53:16.548Z,11.53
2022-12-24T04:55:46.070Z,11.33
2022-12-24T04:58:13.140Z,11.13
2022-12-24T05:00:40.389Z,11.27
2022-12-24T05:03:07.242Z,11.37
2022-12-24T05:05:33.754Z,11.70
2022-12-24T05:08:00.250Z,12.17
2022-12-24T05:10:26.762Z,11.63
2022-12-24T05:12:53.464Z,12.47
2022-12-24T05:15:19.927Z,12.27
2022-12-24T05:17:46.399Z,12.63
2022-12-24T05:20:12.844Z,11.77
2022-12-24T05:22:58.073Z,12.23
2022-12-24T05:25:43.009Z,12.23
2022-12-24T05:28:09.472Z,12.27
2022-12-24T05:30:35.947Z,12.90
2022-12-24T05:33:02.468Z,12.30
2022-12-24T05:35:28.909Z,12.90
2022-12-24T05:37:58.285Z,12.50
2022-12-24T05:40:24.915Z,11.97
2022-12-24T05:42:51.377Z,13.73
2022-12-24T05:45:17.871Z,12.67
2022-12-24T05:47:44.282Z,12.67
2022-12-24T05:50:11.118Z,12.60
2022-12-24T05:52:37.553Z,12.67
2022-12-24T05:55:04.752Z,12.23
2022-12-24T05:57:31.184Z,14.03
2022-12-24T05:59:57.639Z,14.83
2022-12-24T06:02:24.183Z,13.30
2022-12-24T06:04:50.722Z,13.50
2022-12-24T06:07:17.206Z,13.07
2022-12-24T06:09:43.679Z,12.90
2022-12-24T06:12:10.107Z,13.10
2022-12-24T06:14:36.567Z,11.67
2022-12-24T06:17:03.044Z,12.40
2022-12-24T06:19:29.541Z,12.03
2022-12-24T06:21:55.973Z,12.63
2022-12-24T06:24:22.448Z,11.30
2022-12-24T06:26:48.878Z,11.87
2022-12-24T06:29:15.348Z,12.17
2022-12-24T06:31:41.847Z,12.33
2022-12-24T06:34:08.343Z,12.53
2022-12-24T06:36:34.851Z,12.23
2022-12-24T06:39:01.423Z,14.03
2022-12-24T06:41:27.951Z,11.77
2022-12-24T06:43:54.492Z,11.97
2022-12-24T06:46:21.642Z,12.17
2022-12-24T06:48:48.546Z,12.20
2022-12-24T06:51:16.688Z,12.60
2022-12-24T06:53:43.153Z,12.33
2022-12-24T06:56:12.177Z,12.90
2022-12-24T06:58:39.129Z,12.93
2022-12-24T07:01:07.352Z,12.63
2022-12-24T07:03:34.309Z,12.17
2022-12-24T07:06:01.141Z,12.30
2022-12-24T07:08:27.887Z,12.77
2022-12-24T07:10:54.761Z,11.63
2022-12-24T07:13:21.479Z,13.30
2022-12-24T07:15:48.000Z,12.77
2022-12-24T07:18:14.471Z,16.27
2022-12-24T07:20:42.815Z,14.03
2022-12-24T07:23:09.272Z,12.40
2022-12-24T07:25:35.733Z,13.13
2022-12-24T07:28:02.161Z,14.87
2022-12-24T07:30:28.706Z,13.90
2022-12-24T07:32:55.162Z,13.67
2022-12-24T07:35:21.663Z,13.33
2022-12-24T07:37:48.097Z,13.47
2022-12-24T07:40:14.851Z,14.13
2022-12-24T07:42:41.301Z,13.77
2022-12-24T07:45:08.178Z,18.10
2022-12-24T07:47:35.194Z,14.63
2022-12-24T07:50:01.744Z,13.80
2022-12-24T07:52:28.186Z,12.30
2022-12-24T07:54:54.687Z,13.23
2022-12-24T07:57:21.128Z,12.53
2022-12-24T07:59:47.601Z,12.70
2022-12-24T08:02:18.213Z,12.80
2022-12-24T08:04:45.208Z,13.00
2022-12-24T08:07:11.680Z,12.80
2022-12-24T08:09:38.574Z,12.33
2022-12-24T08:12:05.297Z,12.17
2022-12-24T08:14:31.983Z,13.63
2022-12-24T08:16:58.490Z,16.13
2022-12-24T08:19:25.097Z,15.73
2022-12-24T08:21:51.571Z,60.03
2022-12-24T08:24:18.092Z,95.63
2022-12-24T08:26:44.597Z,14.00
2022-12-24T08:29:11.925Z,13.20
2022-12-24T08:31:38.576Z,12.57
2022-12-24T08:34:06.998Z,12.23
2022-12-24T08:36:34.116Z,11.63
2022-12-24T08:39:03.501Z,13.23
2022-12-24T08:41:31.337Z,11.97
2022-12-24T08:43:57.860Z,12.60
2022-12-24T08:46:24.416Z,15.67
2022-12-24T08:48:50.885Z,18.57
2022-12-24T08:51:19.202Z,20.60
2022-12-24T08:53:46.792Z,15.77
2022-12-24T08:56:13.836Z,12.03
2022-12-24T08:58:40.427Z,10.83
2022-12-24T09:01:16.363Z,10.60
2022-12-24T09:03:43.319Z,10.27
2022-12-24T09:06:10.472Z,12.03
2022-12-24T09:08:37.396Z,11.73
2022-12-24T09:11:09.588Z,11.93
2022-12-24T09:13:36.152Z,11.43
2022-12-24T09:16:02.951Z,11.73
2022-12-24T09:18:29.878Z,11.67
2022-12-24T09:21:01.193Z,11.20
2022-12-24T09:23:28.646Z,10.63
2022-12-24T09:25:55.229Z,10.90
2022-12-24T09:28:22.344Z,10.27
2022-12-24T09:30:59.964Z,10.37
2022-12-24T09:33:28.136Z,10.93
2022-12-24T09:35:54.826Z,12.93
2022-12-24T09:38:22.121Z,12.13
2022-12-24T09:40:49.367Z,12.13
2022-12-24T09:43:21.945Z,10.87
2022-12-24T09:46:14.743Z,11.83
2022-12-24T09:48:44.607Z,10.67
2022-12-24T09:51:13.243Z,11.33
2022-12-24T09:53:45.827Z,12.07
2022-12-24T09:56:38.038Z,11.87
2022-12-24T09:59:09.325Z,11.10
2022-12-24T10:01:35.970Z,12.00
2022-12-24T10:04:11.390Z,12.17
2022-12-24T10:06:54.601Z,13.20
2022-12-24T10:09:39.391Z,12.73
2022-12-24T10:12:14.387Z,13.00
2022-12-24T10:14:50.267Z,13.10
2022-12-24T10:17:32.321Z,12.73
2022-12-24T10:20:20.643Z,12.80
2022-12-24T10:22:55.157Z,12.70
2022-12-24T10:25:26.644Z,12.37
2022-12-24T10:27:54.999Z,12.50
2022-12-24T10:30:23.198Z,13.50
2022-12-24T10:32:52.026Z,14.73
2022-12-24T10:35:20.209Z,12.10
2022-12-24T10:37:48.866Z,13.10
2022-12-24T10:40:35.733Z,13.37
2022-12-24T10:43:02.429Z,12.17
2022-12-24T10:45:37.686Z,15.50
2022-12-24T10:48:07.782Z,23.90
2022-12-24T10:50:53.810Z,13.37
2022-12-24T10:53:37.104Z,12.83
2022-12-24T10:56:07.934Z,12.53
2022-12-24T10:58:35.349Z,13.00
2022-12-24T11:01:02.444Z,11.70
2022-12-24T11:03:34.932Z,12.43
2022-12-24T11:06:08.142Z,11.77
2022-12-24T11:08:36.745Z,12.03
2022-12-24T11:11:06.055Z,11.70
2022-12-24T11:13:39.532Z,10.83
2022-12-24T11:16:10.417Z,9.70
2022-12-24T11:18:40.154Z,10.40
2022-12-24T11:21:08.956Z,9.63
2022-12-24T11:23:35.552Z,17.43
2022-12-24T11:26:02.343Z,12.30
2022-12-24T11:28:33.507Z,10.13
2022-12-24T11:31:07.236Z,10.37
2022-12-24T11:33:46.922Z,9.40
2022-12-24T11:36:13.995Z,9.77
2022-12-24T11:38:41.069Z,9.73
2022-12-24T11:41:11.856Z,10.33
2022-12-24T11:43:46.364Z,9.83
2022-12-24T11:46:17.488Z,10.60
2022-12-24T11:48:44.156Z,9.77
2022-12-24T11:51:25.197Z,8.73
2022-12-24T11:54:01.049Z,9.17
2022-12-24T11:56:40.661Z,9.23
2022-12-24T11:59:39.507Z,10.93
2022-12-24T12:02:34.725Z,10.23
2022-12-24T12:05:07.982Z,9.67
2022-12-24T12:07:36.501Z,9.57
2022-12-24T12:10:21.517Z,10.83
2022-12-24T12:12:56.408Z,10.67
2022-12-24T12:15:25.722Z,11.03
2022-12-24T12:17:56.747Z,10.93
2022-12-24T12:20:47.990Z,11.77
2022-12-24T12:23:47.323Z,13.53
2022-12-24T12:26:26.620Z,14.30
2022-12-24T12:29:11.301Z,12.23
2022-12-24T12:31:55.111Z,12.30
2022-12-24T12:34:24.723Z,12.77
2022-12-24T12:36:53.433Z,13.17
2022-12-24T12:39:21.522Z,12.53
2022-12-24T12:41:55.642Z,13.03
2022-12-24T12:44:38.452Z,13.20
2022-12-24T12:47:27.416Z,14.97
2022-12-24T12:50:08.685Z,16.93
2022-12-24T12:52:47.265Z,14.70
2022-12-24T12:55:32.002Z,19.53
2022-12-24T12:58:01.601Z,14.73
2022-12-24T13:00:31.044Z,15.00
2022-12-24T13:03:09.764Z,20.73
2022-12-24T13:05:39.294Z,17.60
2022-12-24T13:08:36.728Z,19.23
2022-12-24T13:11:51.457Z,17.37
2022-12-24T13:14:30.598Z,19.20
2022-12-24T13:17:06.078Z,17.10
2022-12-24T13:19:54.575Z,17.53
2022-12-24T13:22:22.159Z,17.90
2022-12-24T13:24:52.374Z,16.80
2022-12-24T13:27:32.266Z,17.03
2022-12-24T13:30:10.004Z,27.03
2022-12-24T13:32:47.606Z,18.97
2022-12-24T13:35:20.827Z,19.37
2022-12-24T13:37:51.285Z,24.80
2022-12-24T13:40:25.350Z,20.43
2022-12-24T13:43:01.346Z,18.87
2022-12-24T13:45:31.062Z,20.27
2022-12-24T13:48:01.482Z,25.67
2022-12-24T13:51:18.211Z,22.33
2022-12-24T13:53:46.549Z,20.00
2022-12-24T13:56:15.273Z,22.73
2022-12-24T13:58:44.856Z,18.90
2022-12-24T14:01:22.480Z,19.97
2022-12-24T14:03:51.761Z,18.53
2022-12-24T14:06:36.561Z,22.93
2022-12-24T14:09:17.514Z,29.37
2022-12-24T14:12:07.903Z,54.87
2022-12-24T14:14:38.918Z,26.97
2022-12-24T14:17:27.243Z,23.67
2022-12-24T14:20:02.415Z,28.40
2022-12-24T14:22:34.528Z,21.47
2022-12-24T14:25:08.277Z,24.80
2022-12-24T14:27:48.333Z,36.33
2022-12-24T14:30:24.274Z,27.57
2022-12-24T14:32:52.371Z,25.23
2022-12-24T14:35:20.831Z,24.70
2022-12-24T14:38:06.078Z,24.03
2022-12-24T14:40:35.790Z,24.53
2022-12-24T14:43:35.165Z,22.10
2022-12-24T14:46:29.240Z,28.77
2022-12-24T14:49:01.356Z,22.60
2022-12-24T14:51:41.369Z,25.53
2022-12-24T14:54:30.360Z,23.53
2022-12-24T14:57:13.031Z,22.27
2022-12-24T15:00:01.805Z,22.93
2022-12-24T15:02:49.758Z,24.53
2022-12-24T15:05:29.415Z,24.30
2022-12-24T15:08:16.955Z,26.90
2022-12-24T15:10:45.652Z,25.17
2022-12-24T15:13:32.656Z,26.80
2022-12-24T15:16:04.574Z,23.47
2022-12-24T15:18:33.752Z,24.23
2022-12-24T15:21:04.705Z,26.30
2022-12-24T15:23:37.135Z,24.73
2022-12-24T15:26:24.725Z,24.37
2022-12-24T15:29:03.773Z,26.27
2022-12-24T15:31:32.171Z,30.47
2022-12-24T15:34:00.622Z,28.57
2022-12-24T15:36:33.008Z,28.97
2022-12-24T15:39:05.611Z,27.13
2022-12-24T15:42:00.896Z,25.90
2022-12-24T15:44:36.395Z,26.73
2022-12-24T15:47:06.584Z,26.80
2022-12-24T15:49:35.554Z,26.77
2022-12-24T15:52:08.693Z,29.83
2022-12-24T15:54:37.459Z,29.13
2022-12-24T15:57:23.129Z,28.07
2022-12-24T15:59:56.463Z,28.97
2022-12-24T16:02:33.048Z,27.97
2022-12-24T16:05:40.501Z,32.73
2022-12-24T16:08:23.265Z,27.77
2022-12-24T16:10:53.415Z,34.00
2022-12-24T16:13:23.747Z,33.20
2022-12-24T16:16:01.489Z,26.60
2022-12-24T16:18:59.917Z,29.53
2022-12-24T16:21:47.165Z,28.03
2022-12-24T16:24:20.366Z,27.23
2022-12-24T16:26:48.339Z,32.50
2022-12-24T16:29:19.563Z,29.10
2022-12-24T16:31:54.584Z,39.17
2022-12-24T16:34:25.157Z,33.27
2022-12-24T16:36:52.671Z,35.50
2022-12-24T16:39:34.727Z,28.93
2022-12-24T16:42:22.687Z,31.90
2022-12-24T16:44:53.967Z,40.80
2022-12-24T16:47:23.287Z,31.70
2022-12-24T16:49:50.999Z,35.53
2022-12-24T16:52:25.482Z,34.37
2022-12-24T16:54:54.146Z,37.97
2022-12-24T16:57:22.071Z,42.70
2022-12-24T16:59:52.447Z,37.60
2022-12-24T17:02:24.611Z,39.73
2022-12-24T17:04:52.035Z,42.63
2022-12-24T17:07:21.548Z,36.00
2022-12-24T17:09:50.899Z,38.13
2022-12-24T17:12:19.604Z,35.53
2022-12-24T17:14:55.275Z,31.93
2022-12-24T17:17:29.026Z,30.20
2022-12-24T17:19:57.592Z,30.47
2022-12-24T17:22:25.064Z,30.20
2022-12-24T17:24:52.815Z,33.30
2022-12-24T17:27:19.996Z,33.80
2022-12-24T17:29:46.909Z,31.00
2022-12-24T17:32:13.589Z,32.67
2022-12-24T17:34:48.073Z,34.13
2022-12-24T17:37:14.580Z,34.70
2022-12-24T17:39:41.072Z,38.87
2022-12-24T17:42:07.582Z,38.03
2022-12-24T17:44:34.123Z,48.77
2022-12-24T17:47:01.959Z,36.83
2022-12-24T17:49:29.349Z,39.40
2022-12-24T17:51:56.111Z,32.40
2022-12-24T17:54:22.670Z,36.50
2022-12-24T17:56:49.178Z,35.30
2022-12-24T17:59:15.965Z,29.67
2022-12-24T18:01:42.536Z,32.43
2022-12-24T18:04:10.108Z,32.53
2022-12-24T18:06:39.948Z,37.67
2022-12-24T18:09:08.474Z,37.73
2022-12-24T18:11:36.736Z,35.97
2022-12-24T18:14:05.277Z,37.93
2022-12-24T18:16:34.706Z,34.80
2022-12-24T18:19:01.570Z,33.93
2022-12-24T18:21:32.661Z,31.67
2022-12-24T18:23:59.420Z,39.63
2022-12-24T18:26:27.714Z,42.00
2022-12-24T18:28:56.183Z,52.23
2022-12-24T18:31:23.895Z,42.27
2022-12-24T18:33:51.200Z,34.37
2022-12-24T18:36:18.727Z,24.00
2022-12-24T18:38:45.311Z,20.57
2022-12-24T18:41:14.264Z,19.87
2022-12-24T18:43:41.543Z,19.40
2022-12-24T18:46:13.712Z,18.40
2022-12-24T18:48:40.367Z,14.90
2022-12-24T18:51:07.592Z,20.67
2022-12-24T18:53:34.421Z,15.03
2022-12-24T18:56:11.472Z,16.47
2022-12-24T18:58:38.042Z,18.03
2022-12-24T19:01:19.490Z,16.73
2022-12-24T19:03:47.980Z,13.27
2022-12-24T19:06:14.548Z,12.60
2022-12-24T19:08:59.215Z,12.57
2022-12-24T19:11:27.836Z,11.83
2022-12-24T19:13:54.409Z,10.47
2022-12-24T19:16:21.598Z,12.07
2022-12-24T19:18:48.328Z,12.03
2022-12-24T19:21:17.208Z,12.20
2022-12-24T19:23:44.816Z,10.80
2022-12-24T19:26:12.589Z,11.10
2022-12-24T19:28:39.303Z,11.10
2022-12-24T19:31:10.940Z,10.90
2022-12-24T19:33:44.142Z,10.17
2022-12-24T19:36:13.518Z,10.03
2022-12-24T19:38:40.449Z,10.17
2022-12-24T19:41:12.772Z,8.67
2022-12-24T19:43:47.616Z,9.83
2022-12-24T19:46:16.251Z,8.50
2022-12-24T19:48:43.595Z,8.60
2022-12-24T19:51:11.982Z,9.50
2022-12-24T19:53:39.756Z,8.73
2022-12-24T19:56:07.048Z,9.40
2022-12-24T19:58:33.574Z,10.90
2022-12-24T20:01:14.524Z,9.60
2022-12-24T20:03:42.163Z,10.33
2022-12-24T20:06:08.757Z,9.60
2022-12-24T20:08:36.665Z,8.07
2022-12-24T20:11:05.730Z,10.30
2022-12-24T20:13:33.582Z,8.70
2022-12-24T20:16:04.669Z,9.37
2022-12-24T20:18:31.354Z,9.33
2022-12-24T20:21:02.336Z,9.30
2022-12-24T20:23:28.931Z,8.97
2022-12-24T20:26:00.195Z,10.23
2022-12-24T20:28:28.161Z,7.97
2022-12-24T20:30:54.628Z,9.07
2022-12-24T20:33:21.337Z,8.30
2022-12-24T20:35:48.265Z,8.00
2022-12-24T20:38:14.999Z,8.30
2022-12-24T20:40:42.847Z,8.33
2022-12-24T20:43:09.672Z,7.07
2022-12-24T20:45:36.525Z,8.30
2022-12-24T20:48:03.116Z,8.47
2022-12-24T20:50:29.548Z,8.73
2022-12-24T20:52:56.064Z,9.80
2022-12-24T20:55:22.601Z,9.87
2022-12-24T20:57:49.813Z,9.97
2022-12-24T21:00:17.379Z,11.63
2022-12-24T21:02:46.691Z,12.00
2022-12-24T21:05:13.479Z,13.50
2022-12-24T21:07:42.982Z,10.97
2022-12-24T21:10:11.231Z,12.17
2022-12-24T21:12:50.011Z,11.00
2022-12-24T21:15:19.127Z,11.00
2022-12-24T21:17:46.917Z,12.20
2022-12-24T21:20:14.415Z,11.53
2022-12-24T21:22:40.970Z,11.47
2022-12-24T21:25:23.811Z,10.90
2022-12-24T21:27:52.367Z,10.77
2022-12-24T21:30:19.450Z,10.93
2022-12-24T21:32:45.962Z,9.87
2022-12-24T21:35:14.494Z,9.50
2022-12-24T21:37:42.254Z,10.60
2022-12-24T21:40:09.797Z,14.63
2022-12-24T21:42:38.588Z,10.87
2022-12-24T21:45:06.215Z,9.97
2022-12-24T21:47:34.596Z,11.07
2022-12-24T21:50:19.787Z,11.33
2022-12-24T21:52:47.031Z,12.67
2022-12-24T21:55:13.521Z,20.97
2022-12-24T21:57:55.469Z,15.03
2022-12-24T22:00:22.166Z,19.53
2022-12-24T22:02:50.593Z,21.17
2022-12-24T22:05:17.574Z,13.60
2022-12-24T22:08:02.935Z,16.50
2022-12-24T22:10:48.091Z,13.57
2022-12-24T22:13:16.332Z,11.03
2022-12-24T22:15:46.933Z,11.50
2022-12-24T22:18:16.048Z,12.10
2022-12-24T22:20:44.985Z,12.60
2022-12-24T22:23:13.444Z,12.23
2022-12-24T22:25:42.608Z,10.60
2022-12-24T22:28:09.494Z,12.63
2022-12-24T22:30:38.973Z,11.73
2022-12-24T22:33:07.761Z,11.17
2022-12-24T22:35:39.492Z,11.63
2022-12-24T22:38:08.086Z,10.80
2022-12-24T22:40:35.556Z,10.93
2022-12-24T22:43:03.105Z,10.17
2022-12-24T22:45:31.552Z,11.40
2022-12-24T22:47:58.302Z,12.77
2022-12-24T22:50:25.575Z,11.63
2022-12-24T22:52:53.641Z,11.80
2022-12-24T22:55:21.350Z,11.53
2022-12-24T22:57:48.856Z,11.07
2022-12-24T23:00:36.839Z,12.40
2022-12-24T23:03:04.560Z,11.73
2022-12-24T23:05:31.245Z,11.63
2022-12-24T23:07:57.738Z,11.37
2022-12-24T23:10:24.405Z,12.27
2022-12-24T23:13:14.565Z,13.00
2022-12-24T23:15:41.711Z,12.37
2022-12-24T23:18:08.733Z,11.97
2022-12-24T23:20:42.345Z,11.43
2022-12-24T23:23:09.443Z,10.67
2022-12-24T23:25:35.992Z,12.60
2022-12-24T23:28:02.711Z,10.20
2022-12-24T23:30:29.138Z,11.30
2022-12-24T23:32:55.742Z,13.10
2022-12-24T23:35:22.202Z,11.80
2022-12-24T23:37:48.652Z,10.60
2022-12-24T23:40:15.123Z,11.47
2022-12-24T23:42:41.665Z,11.37
2022-12-24T23:45:08.718Z,11.90
2022-12-24T23:47:35.617Z,10.93
2022-12-24T23:50:02.179Z,11.47
2022-12-24T23:52:28.632Z,11.27
2022-12-24T23:54:55.136Z,11.83
2022-12-24T23:57:21.641Z,12.50
2022-12-24T23:59:48.139Z,12.13
